LESB Información de aeropuertos

Información de pistas
Pista 06 Longitud 3281 ft Ancho 72 ft
Elevación 0 ft Umbral 0 ft Rumbo 49
Pista 24 Longitud 3281 ft Ancho 72 ft
Elevación 0 ft Umbral 0 ft Rumbo 229
Frecuencias
Tipo APP Nombre PALMA APP Frequencia 119.4 MHZ
Tipo OPS Nombre PALMA OPS Frequencia 130.25 MHZ
Tipo TWR Nombre PALMA TWR Frequencia 118.3 MHZ
Radioayudas
Información meteorológica y NOTAM
ADDS - METARS form results

(1910 UTC 27 September 2021)
Data provider http://aviationweather.gov/metar/data/
 
METAR text: LESB 271900Z AUTO 10005KT CAVOK 23/20 Q1022
Conditions at: LESB (MALLORCA SON BON, ES) observed 1900 UTC 27 September 2021
Temperature: 23.0°C (73°F)
Dewpoint: 20.0°C (68°F) [RH = 83%]
Pressure (altimeter): 30.18 inches Hg (1022.0 mb)
Winds: from the E (100 degrees) at 6 MPH (5 knots; 2.6 m/s)
Visibility: 6 or more miles (10+ km)
Ceiling: ceiling and visibility are OK
Clouds: unknown
Weather: no significant weather observed at this time

METAR text: LESB 271830Z AUTO 16003KT 110V180 CAVOK 24/20 Q1021
Conditions at: LESB (MALLORCA SON BON, ES) observed 1830 UTC 27 September 2021
Temperature: 24.0°C (75°F)
Dewpoint: 20.0°C (68°F) [RH = 78%]
Pressure (altimeter): 30.15 inches Hg (1021.0 mb)
Winds: from the SSE (160 degrees) at 3 MPH (3 knots; 1.5 m/s)
Visibility: 6 or more miles (10+ km)
Ceiling: ceiling and visibility are OK
Clouds: unknown
Weather: no significant weather observed at this time